• Join FlightAware (Why Join?)
  • Login
  • US Flag 
06:48PM EDT


 

Airport Tracker/Info


-or-


 

Live Flight TrackerFlight Track Log ✈ AAL2007 ✈ 15-Jun-2013 ✈ KORD - KAUS

Flight Track Log - Related Links

Times and Time Zones

All times are in EDT time to prevent confusion due to time zone crossing. See the AAL2007 flight status page for this flight to view local times or setup timezone preferences in your user account.

Time Position Orientation Groundspeed Altitude Reporting Facility
EDT Latitude Longitude Course Direction KTS MPH feet Rate Location/Type
06:03PM 41.9500 -87.9167 207° Southwest 174 200 1,700  Level Chicago TRACON
06:04PM 41.8833 -87.9000 169° South 222 255 3,500 2,100 Climbing Chicago TRACON
06:06PM 41.7043 -88.1843 201° Southwest  Level Estimated
06:06PM 41.7969 -87.8964 178° South 261 300 6,500  Level Chicago Center
06:07PM 41.6116 -88.2763 197° South  Level Estimated
06:07PM 41.7272 -87.9486 209° Southwest 287 330 9,600  Level Chicago Center
06:08PM 41.5190 -88.3681 194° South  Level Estimated
06:08PM 41.6569 -88.0017 209° Southwest 291 335 12,600  Level Chicago Center
06:09PM 41.4262 -88.4596 207° Southwest  Level Estimated
06:09PM 41.5772 -88.0528 206° Southwest 317 365 14,300  Level Chicago Center
06:10PM 41.4722 -88.1336 210° Southwest 379 436 16,300 1,980 Climbing Chicago Center
06:11PM 41.3758 -88.1942 205° Southwest 399 459 18,400 2,040 Climbing Chicago Center
06:12PM 41.2678 -88.2414 198° South 415 478 20,600 1,980 Climbing Chicago Center
06:13PM 41.1586 -88.2911 199° South 417 480 22,500 1,980 Climbing Chicago Center
06:14PM 41.0467 -88.3419 199° South 425 489 24,700 1,740 Climbing Chicago Center
06:15PM 40.9106 -88.4094 201° Southwest 437 503 26,200 1,380 Climbing Chicago Center
06:16PM 40.8031 -88.4894 209° Southwest 444 511 27,600 1,560 Climbing Chicago Center
06:17PM 40.6925 -88.5614 206° Southwest 445 512 29,500 1,560 Climbing Chicago Center
06:18PM 40.5839 -88.6325 206° Southwest 441 507 30,900 1,200 Climbing Chicago Center
06:19PM 40.4653 -88.7131 207° Southwest 437 503 32,000 780 Climbing Chicago Center
06:20PM 40.3594 -88.7797 206° Southwest 425 489 32,500 720 Climbing Chicago Center
06:21PM 40.2550 -88.8481 207° Southwest 419 482 33,500 720 Climbing Chicago Center
06:22PM 40.1492 -88.9158 206° Southwest 421 484 34,000 240 Climbing Chicago Center
06:23PM 40.0439 -88.9836 206° Southwest 421 484 34,000  Level Chicago Center
06:24PM 39.9389 -89.0531 207° Southwest 423 487 34,000  Level Chicago Center
06:25PM 39.8350 -89.1194 206° Southwest 418 481 34,000  Level Chicago Center
06:26PM 39.7719 -89.1594 206° Southwest 417 480 34,000  Level Kansas City Center
06:27PM 39.6661 -89.2269 206° Southwest 421 484 34,000  Level Kansas City Center
06:28PM 39.5369 -89.3094 206° Southwest 425 489 34,000  Level Kansas City Center
06:29PM 39.4294 -89.3772 206° Southwest 428 493 34,000  Level Kansas City Center
06:30PM 39.3231 -89.4447 206° Southwest 427 491 34,000  Level Kansas City Center
06:31PM 39.2164 -89.5119 206° Southwest 426 490 34,000  Level Kansas City Center
06:32PM 39.1017 -89.5861 207° Southwest 428 493 34,000  Level Kansas City Center
06:33PM 38.9956 -89.6517 206° Southwest 424 488 34,000  Level Kansas City Center
06:34PM 38.8961 -89.7128 206° Southwest 426 490 34,000  Level Kansas City Center
06:35PM 38.7886 -89.7781 205° Southwest 426 490 34,000  Level Kansas City Center
06:36PM 38.6814 -89.8442 206° Southwest 425 489 34,000  Level Kansas City Center
06:37PM 38.5728 -89.9103 205° Southwest 428 493 34,000  Level Kansas City Center
06:38PM 38.4631 -89.9769 205° Southwest 431 496 34,000  Level Kansas City Center
06:39PM 38.3533 -90.0450 206° Southwest 434 499 34,000  Level Kansas City Center
06:40PM 38.2425 -90.1128 206° Southwest 437 503 34,000  Level Kansas City Center
06:41PM 38.1317 -90.1794 205° Southwest 440 506 34,000  Level Kansas City Center
06:42PM 38.0219 -90.2486 206° Southwest 438 504 34,000  Level Kansas City Center
06:43PM 37.9111 -90.3122 204° Southwest 436 502 34,000  Level Kansas City Center
06:44PM 37.7789 -90.3986 207° Southwest 444 511 34,000  Level Kansas City Center
06:45PM 37.6683 -90.4600 204° Southwest 439 505 34,000  Level Kansas City Center
06:46PM 37.5603 -90.5297 207° Southwest 437 503 34,000  Level Kansas City Center
06:47PM 37.4497 -90.5953 205° Southwest 440 506 34,000  Level Kansas City Center
06:48PM 37.3308 -90.6650 205° Southwest 440 506 34,000  Level Kansas City Center
06:49PM 37.2214 -90.7303 205° Southwest 439 505 34,000  Level Kansas City Center
06:50PM 37.1039 -90.7981 205° Southwest 435 501 34,000  Level Kansas City Center
06:51PM 37.0025 -90.8578 205° Southwest 434 499 34,000  Level Kansas City Center
06:52PM 36.8906 -90.9236 205° Southwest 440 506 34,000  Level Kansas City Center
06:53PM 36.8011 -90.9814 207° Southwest 446 513 34,000  Level Memphis Center
06:54PM 36.6883 -91.0453 204° Southwest 446 513 34,000  Level Memphis Center
06:55PM 36.5669 -91.1139 204° Southwest 439 505 34,000  Level Memphis Center
06:56PM 36.4667 -91.1725 205° Southwest 439 505 34,000  Level Memphis Center
06:57PM 36.3578 -91.2358 205° Southwest 444 511 34,000  Level Memphis Center
06:58PM 36.2428 -91.3014 205° Southwest 444 511 34,000  Level Memphis Center
06:59PM 36.1294 -91.3644 204° Southwest 449 517 34,000  Level Memphis Center
07:00PM 36.0164 -91.4272 204° Southwest 449 517 34,000  Level Memphis Center
07:01PM 35.8950 -91.4997 206° Southwest 444 511 34,000  Level Memphis Center
07:02PM 35.7839 -91.5622 205° Southwest 444 511 34,000  Level Memphis Center
07:03PM 35.6725 -91.6272 205° Southwest 444 511 34,000  Level Memphis Center
07:04PM 35.5594 -91.6892 204° Southwest 444 511 34,000  Level Memphis Center
07:05PM 35.4461 -91.7536 205° Southwest 444 511 34,000  Level Memphis Center
07:06PM 35.3328 -91.8153 204° Southwest 444 511 34,000  Level Memphis Center
07:07PM 35.2233 -91.8772 205° Southwest 444 511 34,000  Level Memphis Center
07:08PM 35.1122 -91.9386 204° Southwest 444 511 34,000  Level Memphis Center
07:09PM 34.9986 -92.0022 205° Southwest 444 511 34,000  Level Memphis Center
07:10PM 34.8872 -92.0661 205° Southwest 444 511 34,000  Level Memphis Center
07:11PM 34.7736 -92.1294 205° Southwest 450 518 34,000  Level Memphis Center
07:12PM 34.6581 -92.1953 205° Southwest 445 512 34,000  Level Memphis Center
07:13PM 34.5525 -92.2736 211° Southwest 450 518 34,000  Level Memphis Center
07:14PM 34.4469 -92.3544 212° Southwest 455 524 34,000  Level Memphis Center
07:15PM 34.3414 -92.4325 211° Southwest 455 524 34,000  Level Memphis Center
07:16PM 34.2547 -92.4981 212° Southwest 455 524 34,000  Level Memphis Center
07:17PM 34.1406 -92.5831 212° Southwest 455 524 34,000  Level Memphis Center
07:19PM 33.8994 -92.7642 212° Southwest 447 514 34,000  Level Fort Worth Center
07:20PM 33.7919 -92.8450 212° Southwest 447 514 34,000  Level Fort Worth Center
07:21PM 33.6842 -92.9231 211° Southwest 447 514 34,000  Level Fort Worth Center
07:22PM 33.5783 -93.0006 211° Southwest 447 514 34,000  Level Fort Worth Center
07:23PM 33.4706 -93.0808 212° Southwest 458 527 34,000  Level Fort Worth Center
07:24PM 33.3525 -93.1661 211° Southwest 453 521 34,000  Level Fort Worth Center
07:25PM 33.2444 -93.2433 211° Southwest 453 521 34,000  Level Fort Worth Center
07:26PM 33.1361 -93.3178 210° Southwest 453 521 34,000  Level Fort Worth Center
07:27PM 33.0300 -93.3944 211° Southwest 453 521 34,000  Level Fort Worth Center
07:28PM 32.9261 -93.4711 212° Southwest 453 521 34,000  Level Fort Worth Center
07:29PM 32.8178 -93.5475 211° Southwest 453 521 34,000  Level Fort Worth Center
07:30PM 32.7006 -93.5994 200° South 453 521 34,000  Level Fort Worth Center
07:31PM 32.5806 -93.6389 195° South 453 521 34,000  Level Fort Worth Center
07:32PM 32.4606 -93.6736 194° South 448 516 34,000 120 Level Fort Worth Center
07:33PM 32.3386 -93.7106 194° South 453 521 34,300 600 Climbing Fort Worth Center
07:34PM 32.2186 -93.7472 194° South 453 521 35,200 840 Climbing Fort Worth Center
07:35PM 32.1153 -93.7833 196° South 447 514 36,000 480 Climbing Fort Worth Center
07:36PM 32.0478 -93.8022 193° South 448 516 36,000  Level Houston Center
07:37PM 31.9253 -93.8369 194° South 453 521 36,000  Level Houston Center
07:38PM 31.7786 -93.8803 194° South 453 521 36,000  Level Houston Center
07:39PM 31.6714 -93.9106 194° South 452 520 36,000  Level Houston Center
07:40PM 31.5483 -93.9461 194° South 451 519 36,000  Level Houston Center
07:41PM 31.3994 -93.9886 194° South 457 526 36,000  Level Houston Center
07:42PM 31.2800 -94.0358 199° South 451 519 36,000  Level Houston Center
07:43PM 31.1981 -94.1394 227° Southwest 436 502 36,000  Level Houston Center
07:44PM 31.1183 -94.2469 229° Southwest 435 501 36,000  Level Houston Center
07:45PM 31.0381 -94.3561 229° Southwest 437 503 36,000  Level Houston Center
07:46PM 30.9581 -94.4636 229° Southwest 434 499 36,000  Level Houston Center
07:47PM 30.8750 -94.5692 228° Southwest 436 502 36,000  Level Houston Center
07:48PM 30.7933 -94.6744 228° Southwest 435 501 36,000  Level Houston Center
07:49PM 30.7108 -94.7783 227° Southwest 434 499 36,000  Level Houston Center
07:50PM 30.6286 -94.8828 228° Southwest 435 501 36,000  Level Houston Center
07:51PM 30.5433 -94.9828 225° Southwest 435 501 36,000  Level Houston Center
07:52PM 30.4717 -95.0936 233° Southwest 427 491 36,000 -480 Level Houston Center
07:53PM 30.3992 -95.2111 234° Southwest 431 496 35,100 -960 Descending Houston Center
07:54PM 30.3286 -95.3222 234° Southwest 429 494 34,100 -1,080 Descending Houston Center
07:55PM 30.2436 -95.4561 234° Southwest 432 497 32,900 -1,080 Descending Houston Center
07:56PM 30.1722 -95.5708 234° Southwest 439 505 31,900 -1,020 Descending Houston Center
07:57PM 30.0997 -95.6850 234° Southwest 441 507 30,900 -960 Descending Houston Center
07:58PM 30.0256 -95.7986 233° Southwest 444 511 30,000 -480 Descending Houston Center
07:59PM 29.9500 -95.9161 233° Southwest 453 521 30,000  Level Houston Center
08:01PM 29.8758 -96.0325 234° Southwest 451 519 30,000  Level Houston Center
08:02PM 29.8014 -96.1481 233° Southwest 451 519 30,000 -660 Level Houston Center
08:03PM 29.7892 -96.3133 265° West 449 517 28,700 -2,040 Descending Houston Center
08:04PM 29.7997 -96.4544 275° West 447 514 25,900 -2,580 Descending Houston Center
08:05PM 29.8233 -96.5858 282° West 435 501 23,500 -2,700 Descending Houston Center
08:06PM 29.9019 -96.6856 312° West 424 488 20,400 -3,720 Descending Houston Center
08:07PM 29.9775 -96.7800 313° West 411 473 15,900 -4,020 Descending Houston Center
08:08PM 30.0506 -96.8781 311° West 405 466 12,200 -2,280 Descending Houston Center
08:09PM 30.0833 -96.9906 289° West 373 429 11,300 -900 Descending Houston Center
08:10PM 30.1258 -97.0903 296° West 317 365 10,400 -1,200 Descending Houston Center
08:11PM 30.1619 -97.1764 296° West 296 341 8,900 -1,500 Descending Houston Center
08:12PM 30.1931 -97.2614 293° West 287 330 7,400 -1,560 Descending Houston Center
08:13PM 30.2244 -97.3436 294° West 280 322 5,800 -1,500 Descending Houston Center
08:14PM 30.2592 -97.4258 296° West 280 322 4,400 -1,260 Descending Houston Center
08:15PM 30.2928 -97.5067 296° West 277 319 3,300 -1,140 Descending Houston Center